createdAt,value
2022-08-12T00:00:07.547Z,1008.61
2022-08-12T00:01:07.530Z,1008.55
2022-08-12T00:02:07.516Z,1008.53
2022-08-12T00:03:07.505Z,1008.61
2022-08-12T00:04:07.495Z,1008.61
2022-08-12T00:05:07.488Z,1008.6
2022-08-12T00:06:07.505Z,1008.66
2022-08-12T00:07:07.468Z,1008.58
2022-08-12T00:08:07.448Z,1008.63
2022-08-12T00:09:07.445Z,1008.69
2022-08-12T00:10:07.455Z,1008.66
2022-08-12T00:11:07.423Z,1008.62
2022-08-12T00:12:07.419Z,1008.65
2022-08-12T00:13:07.396Z,1008.66
2022-08-12T00:14:07.441Z,1008.68
2022-08-12T00:15:07.383Z,1008.62
2022-08-12T00:16:07.375Z,1008.64
2022-08-12T00:17:07.397Z,1008.65
2022-08-12T00:18:07.399Z,1008.67
2022-08-12T00:19:07.333Z,1008.59
2022-08-12T00:20:07.322Z,1008.66
2022-08-12T00:21:07.320Z,1008.63
2022-08-12T00:22:07.315Z,1008.58
2022-08-12T00:23:07.296Z,1008.61
2022-08-12T00:24:07.328Z,1008.6
2022-08-12T00:25:07.276Z,1008.58
2022-08-12T00:26:07.267Z,1008.57
2022-08-12T00:27:07.268Z,1008.61
2022-08-12T00:28:07.265Z,1008.6
2022-08-12T00:29:07.233Z,1008.59
2022-08-12T00:30:07.233Z,1008.59
2022-08-12T00:31:07.211Z,1008.57
2022-08-12T00:32:07.204Z,1008.56
2022-08-12T00:33:07.200Z,1008.59
2022-08-12T00:34:07.181Z,1008.57
2022-08-12T00:35:07.214Z,1008.59
2022-08-12T00:36:07.181Z,1008.62
2022-08-12T00:37:07.160Z,1008.63
2022-08-12T00:38:07.147Z,1008.62
2022-08-12T00:39:07.136Z,1008.64
2022-08-12T00:40:07.124Z,1008.61
2022-08-12T00:41:07.109Z,1008.64
2022-08-12T00:42:07.106Z,1008.64
2022-08-12T00:43:07.089Z,1008.67
2022-08-12T00:44:07.087Z,1008.64
2022-08-12T00:45:07.073Z,1008.68
2022-08-12T00:46:07.054Z,1008.68
2022-08-12T00:47:07.043Z,1008.64
2022-08-12T00:48:07.030Z,1008.7
2022-08-12T00:49:07.024Z,1008.64
2022-08-12T00:50:07.014Z,1008.65
2022-08-12T00:51:07.012Z,1008.69
2022-08-12T00:52:15.572Z,1008.69
2022-08-12T00:53:15.550Z,1008.74
2022-08-12T00:54:14.571Z,1008.72
2022-08-12T00:55:14.586Z,1008.69
2022-08-12T00:56:14.635Z,1008.68
2022-08-12T00:57:14.533Z,1008.67
2022-08-12T00:58:14.540Z,1008.63
2022-08-12T00:59:14.504Z,1008.7
2022-08-12T01:00:14.508Z,1008.66
2022-08-12T01:01:06.920Z,1008.66
2022-08-12T01:02:06.906Z,1008.69
2022-08-12T01:03:06.875Z,1008.68
2022-08-12T01:04:06.866Z,1008.69
2022-08-12T01:05:06.865Z,1008.68
2022-08-12T01:06:06.842Z,1008.63
2022-08-12T01:07:06.836Z,1008.66
2022-08-12T01:08:06.855Z,1008.68
2022-08-12T01:09:06.858Z,1008.65
2022-08-12T01:10:06.819Z,1008.69
2022-08-12T01:11:06.832Z,1008.64
2022-08-12T01:12:06.792Z,1008.69
2022-08-12T01:13:06.779Z,1008.68
2022-08-12T01:14:06.804Z,1008.66
2022-08-12T01:15:14.329Z,1008.61
2022-08-12T01:16:06.737Z,1008.6
2022-08-12T01:17:06.723Z,1008.64
2022-08-12T01:18:06.722Z,1008.61
2022-08-12T01:19:06.701Z,1008.62
2022-08-12T01:20:06.690Z,1008.67
2022-08-12T01:21:06.698Z,1008.67
2022-08-12T01:22:06.706Z,1008.62
2022-08-12T01:23:06.662Z,1008.68
2022-08-12T01:24:06.649Z,1008.65
2022-08-12T01:25:06.649Z,1008.68
2022-08-12T01:26:06.631Z,1008.69
2022-08-12T01:27:06.625Z,1008.62
2022-08-12T01:28:06.615Z,1008.66
2022-08-12T01:29:06.601Z,1008.65
2022-08-12T01:30:06.587Z,1008.62
2022-08-12T01:31:06.573Z,1008.63
2022-08-12T01:32:06.568Z,1008.78
2022-08-12T01:33:06.559Z,1008.71
2022-08-12T01:34:06.555Z,1008.72
2022-08-12T01:35:06.537Z,1008.71
2022-08-12T01:36:06.520Z,1008.73
2022-08-12T01:37:06.512Z,1008.69
2022-08-12T01:38:06.508Z,1008.71
2022-08-12T01:39:06.492Z,1008.69
2022-08-12T01:40:06.479Z,1008.69
2022-08-12T01:41:06.485Z,1008.71
2022-08-12T01:42:06.462Z,1008.66
2022-08-12T01:43:06.460Z,1008.66
2022-08-12T01:44:06.443Z,1008.68
2022-08-12T01:45:06.431Z,1008.6
2022-08-12T01:46:06.418Z,1008.62
2022-08-12T01:47:06.411Z,1008.72
2022-08-12T01:48:06.409Z,1008.68
2022-08-12T01:49:06.388Z,1008.66
2022-08-12T01:50:06.372Z,1008.67
2022-08-12T01:51:06.365Z,1008.69
2022-08-12T01:52:06.356Z,1008.69
2022-08-12T01:53:06.349Z,1008.66
2022-08-12T01:54:06.336Z,1008.66
2022-08-12T01:55:06.320Z,1008.62
2022-08-12T01:56:06.312Z,1008.65
2022-08-12T01:57:06.299Z,1008.65
2022-08-12T01:58:06.290Z,1008.61
2022-08-12T01:59:06.281Z,1008.59
2022-08-12T02:00:06.270Z,1008.61
2022-08-12T02:01:06.265Z,1008.62
2022-08-12T02:02:06.251Z,1008.67
2022-08-12T02:03:06.240Z,1008.56
2022-08-12T02:04:06.226Z,1008.55
2022-08-12T02:05:06.219Z,1008.54
2022-08-12T02:06:06.206Z,1008.53
2022-08-12T02:07:06.204Z,1008.49
2022-08-12T02:08:06.193Z,1008.49
2022-08-12T02:09:06.175Z,1008.53
2022-08-12T02:10:06.172Z,1008.52
2022-08-12T02:11:06.157Z,1008.55
2022-08-12T02:12:06.144Z,1008.53
2022-08-12T02:13:06.133Z,1008.56
2022-08-12T02:14:06.121Z,1008.56
2022-08-12T02:15:06.117Z,1008.57
2022-08-12T02:16:06.103Z,1008.54
2022-08-12T02:17:06.093Z,1008.52
2022-08-12T02:18:06.083Z,1008.53
2022-08-12T02:19:06.079Z,1008.55
2022-08-12T02:20:06.061Z,1008.54
2022-08-12T02:21:06.069Z,1008.54
2022-08-12T02:22:06.038Z,1008.49
2022-08-12T02:23:06.028Z,1008.51
2022-08-12T02:24:06.018Z,1008.51
2022-08-12T02:25:06.004Z,1008.52
2022-08-12T02:26:05.995Z,1008.46
2022-08-12T02:27:05.986Z,1008.47
2022-08-12T02:28:05.985Z,1008.47
2022-08-12T02:29:05.967Z,1008.49
2022-08-12T02:30:05.949Z,1008.49
2022-08-12T02:31:05.945Z,1008.45
2022-08-12T02:32:05.932Z,1008.47
2022-08-12T02:33:05.920Z,1008.53
2022-08-12T02:34:05.919Z,1008.57
2022-08-12T02:35:05.905Z,1008.45
2022-08-12T02:36:05.888Z,1008.57
2022-08-12T02:37:05.886Z,1008.54
2022-08-12T02:38:05.869Z,1008.51
2022-08-12T02:39:05.865Z,1008.52
2022-08-12T02:40:05.847Z,1008.53
2022-08-12T02:41:05.841Z,1008.51
2022-08-12T02:42:05.828Z,1008.53
2022-08-12T02:43:05.815Z,1008.56
2022-08-12T02:44:05.814Z,1008.55
2022-08-12T02:45:05.800Z,1008.58
2022-08-12T02:46:05.788Z,1008.51
2022-08-12T02:47:05.775Z,1008.59
2022-08-12T02:48:05.767Z,1008.53
2022-08-12T02:49:05.754Z,1008.5
2022-08-12T02:50:05.765Z,1008.46
2022-08-12T02:51:05.745Z,1008.52
2022-08-12T02:52:05.723Z,1008.5
2022-08-12T02:53:05.712Z,1008.45
2022-08-12T02:54:05.699Z,1008.44
2022-08-12T02:55:05.686Z,1008.48
2022-08-12T02:56:05.681Z,1008.43
2022-08-12T02:57:05.663Z,1008.49
2022-08-12T02:58:05.663Z,1008.46
2022-08-12T02:59:05.654Z,1008.49
2022-08-12T03:00:05.667Z,1008.6
2022-08-12T03:01:05.625Z,1008.52
2022-08-12T03:02:05.617Z,1008.55
2022-08-12T03:03:05.605Z,1008.58
2022-08-12T03:04:05.606Z,1008.58
2022-08-12T03:05:05.587Z,1008.54
2022-08-12T03:06:05.586Z,1008.54
2022-08-12T03:07:05.558Z,1008.56
2022-08-12T03:08:05.549Z,1008.51
2022-08-12T03:09:05.538Z,1008.51
2022-08-12T03:10:05.532Z,1008.52
2022-08-12T03:11:05.532Z,1008.51
2022-08-12T03:12:05.508Z,1008.48
2022-08-12T03:13:05.502Z,1008.47
2022-08-12T03:14:05.499Z,1008.53
2022-08-12T03:15:05.482Z,1008.52
2022-08-12T03:16:05.465Z,1008.57
2022-08-12T03:17:05.461Z,1008.58
2022-08-12T03:18:05.449Z,1008.58
2022-08-12T03:19:05.437Z,1008.53
2022-08-12T03:20:05.420Z,1008.59
2022-08-12T03:21:05.423Z,1008.6
2022-08-12T03:22:05.407Z,1008.58
2022-08-12T03:23:05.390Z,1008.58
2022-08-12T03:24:05.386Z,1008.53
2022-08-12T03:25:05.378Z,1008.55
2022-08-12T03:26:05.365Z,1008.55
2022-08-12T03:27:05.347Z,1008.6
2022-08-12T03:28:05.342Z,1008.54
2022-08-12T03:29:05.334Z,1008.53
2022-08-12T03:30:05.315Z,1008.59
2022-08-12T03:31:05.313Z,1008.57
2022-08-12T03:32:05.308Z,1008.51
2022-08-12T03:33:05.287Z,1008.55
2022-08-12T03:34:05.279Z,1008.58
2022-08-12T03:35:05.262Z,1008.57
2022-08-12T03:36:05.267Z,1008.5
2022-08-12T03:37:05.244Z,1008.55
2022-08-12T03:38:05.230Z,1008.6
2022-08-12T03:39:05.223Z,1008.59
2022-08-12T03:40:05.212Z,1008.58
2022-08-12T03:41:05.216Z,1008.56
2022-08-12T03:42:05.197Z,1008.57
2022-08-12T03:43:05.179Z,1008.63
2022-08-12T03:44:05.167Z,1008.6
2022-08-12T03:45:05.172Z,1008.62
2022-08-12T03:46:05.147Z,1008.63
2022-08-12T03:47:05.144Z,1008.64
2022-08-12T03:48:05.136Z,1008.61
2022-08-12T03:49:05.119Z,1008.64
2022-08-12T03:50:05.104Z,1008.64
2022-08-12T03:51:05.092Z,1008.6
2022-08-12T03:52:05.081Z,1008.58
2022-08-12T03:53:05.075Z,1008.53
2022-08-12T03:54:05.070Z,1008.58
2022-08-12T03:55:05.059Z,1008.62
2022-08-12T03:56:05.045Z,1008.57
2022-08-12T03:57:05.036Z,1008.57
2022-08-12T03:58:05.022Z,1008.6
2022-08-12T03:59:05.009Z,1008.68
2022-08-12T04:00:04.999Z,1008.59
2022-08-12T04:01:04.999Z,1008.64
2022-08-12T04:02:04.979Z,1008.63
2022-08-12T04:03:04.976Z,1008.63
2022-08-12T04:04:04.958Z,1008.59
2022-08-12T04:05:04.951Z,1008.57
2022-08-12T04:06:04.957Z,1008.61
2022-08-12T04:07:04.928Z,1008.63
2022-08-12T04:08:04.915Z,1008.59
2022-08-12T04:09:04.917Z,1008.67
2022-08-12T04:10:04.906Z,1008.69
2022-08-12T04:11:04.882Z,1008.62
2022-08-12T04:12:04.876Z,1008.61
2022-08-12T04:13:04.865Z,1008.62
2022-08-12T04:14:04.850Z,1008.63
2022-08-12T04:15:04.856Z,1008.61
2022-08-12T04:16:04.834Z,1008.61
2022-08-12T04:17:04.821Z,1008.59
2022-08-12T04:18:04.823Z,1008.58
2022-08-12T04:19:04.797Z,1008.57
2022-08-12T04:20:04.797Z,1008.6
2022-08-12T04:21:04.782Z,1008.55
2022-08-12T04:22:05.431Z,1008.56
2022-08-12T04:23:04.773Z,1008.59
2022-08-12T04:24:04.764Z,1008.6
2022-08-12T04:25:04.743Z,1008.55
2022-08-12T04:26:04.730Z,1008.63
2022-08-12T04:27:04.721Z,1008.58
2022-08-12T04:28:04.702Z,1008.6
2022-08-12T04:29:04.696Z,1008.57
2022-08-12T04:30:04.709Z,1008.56
2022-08-12T04:31:04.676Z,1008.59
2022-08-12T04:32:04.661Z,1008.57
2022-08-12T04:33:04.657Z,1008.58
2022-08-12T04:34:04.639Z,1008.61
2022-08-12T04:35:04.641Z,1008.58
2022-08-12T04:36:04.623Z,1008.59
2022-08-12T04:37:04.625Z,1008.6
2022-08-12T04:38:04.598Z,1008.58
2022-08-12T04:39:04.597Z,1008.6
2022-08-12T04:40:04.576Z,1008.65
2022-08-12T04:41:04.579Z,1008.55
2022-08-12T04:42:04.571Z,1008.55
2022-08-12T04:43:04.552Z,1008.56
2022-08-12T04:44:04.540Z,1008.57
2022-08-12T04:45:04.533Z,1008.56
2022-08-12T04:46:04.522Z,1008.56
2022-08-12T04:47:04.507Z,1008.53
2022-08-12T04:48:04.491Z,1008.53
2022-08-12T04:49:04.489Z,1008.54
2022-08-12T04:50:04.471Z,1008.53
2022-08-12T04:51:04.459Z,1008.53
2022-08-12T04:52:04.454Z,1008.61
2022-08-12T04:53:04.449Z,1008.59
2022-08-12T04:54:04.453Z,1008.63
2022-08-12T04:55:04.421Z,1008.57
2022-08-12T04:56:04.445Z,1008.67
2022-08-12T04:57:04.404Z,1008.6
2022-08-12T04:58:04.391Z,1008.57
2022-08-12T04:59:04.379Z,1008.57
2022-08-12T05:00:04.369Z,1008.6
2022-08-12T05:01:04.360Z,1008.62
2022-08-12T05:02:04.356Z,1008.55
2022-08-12T05:03:04.337Z,1008.57
2022-08-12T05:04:04.323Z,1008.53
2022-08-12T05:05:04.316Z,1008.56
2022-08-12T05:06:04.306Z,1008.53
2022-08-12T05:07:04.295Z,1008.49
2022-08-12T05:08:04.300Z,1008.52
2022-08-12T05:09:04.273Z,1008.52
2022-08-12T05:10:04.288Z,1008.51
2022-08-12T05:11:04.250Z,1008.5
2022-08-12T05:12:04.252Z,1008.56
2022-08-12T05:13:04.251Z,1008.55
2022-08-12T05:14:04.232Z,1008.49
2022-08-12T05:15:04.213Z,1008.52
2022-08-12T05:16:04.201Z,1008.56
2022-08-12T05:17:04.196Z,1008.54
2022-08-12T05:18:04.176Z,1008.56
2022-08-12T05:19:04.188Z,1008.58
2022-08-12T05:20:04.162Z,1008.59
2022-08-12T05:21:04.152Z,1008.58
2022-08-12T05:22:04.143Z,1008.59
2022-08-12T05:23:04.141Z,1008.62
2022-08-12T05:24:04.115Z,1008.62
2022-08-12T05:25:04.109Z,1008.54
2022-08-12T05:26:04.091Z,1008.56
2022-08-12T05:27:04.081Z,1008.56
2022-08-12T05:28:04.083Z,1008.58
2022-08-12T05:29:04.064Z,1008.54
2022-08-12T05:30:04.074Z,1008.59
2022-08-12T05:31:04.043Z,1008.54
2022-08-12T05:32:04.059Z,1008.53
2022-08-12T05:33:04.022Z,1008.59
2022-08-12T05:34:04.027Z,1008.53
2022-08-12T05:35:04.007Z,1008.53
2022-08-12T05:36:03.985Z,1008.58
2022-08-12T05:37:03.977Z,1008.58
2022-08-12T05:38:03.977Z,1008.59
2022-08-12T05:39:03.975Z,1008.52
2022-08-12T05:40:03.956Z,1008.53
2022-08-12T05:41:03.933Z,1008.65
2022-08-12T05:42:03.927Z,1008.66
2022-08-12T05:43:03.923Z,1008.63
2022-08-12T05:44:03.909Z,1008.59
2022-08-12T05:45:03.900Z,1008.58
2022-08-12T05:46:03.887Z,1008.64
2022-08-12T05:47:03.875Z,1008.61
2022-08-12T05:48:03.875Z,1008.63
2022-08-12T05:49:03.886Z,1008.62
2022-08-12T05:50:03.840Z,1008.62
2022-08-12T05:51:03.831Z,1008.66
2022-08-12T05:52:03.828Z,1008.7
2022-08-12T05:53:03.815Z,1008.66
2022-08-12T05:54:03.796Z,1008.64
2022-08-12T05:55:03.789Z,1008.74
2022-08-12T05:56:03.782Z,1008.76
2022-08-12T05:57:03.765Z,1008.72
2022-08-12T05:58:03.769Z,1008.72
2022-08-12T05:59:03.740Z,1008.75
2022-08-12T06:00:03.735Z,1008.76
2022-08-12T06:01:03.722Z,1008.71
2022-08-12T06:02:03.717Z,1008.7
2022-08-12T06:03:03.701Z,1008.73
2022-08-12T06:04:03.690Z,1008.72
2022-08-12T06:05:03.682Z,1008.69
2022-08-12T06:06:03.834Z,1008.72
2022-08-12T06:07:03.659Z,1008.71
2022-08-12T06:08:03.649Z,1008.64
2022-08-12T06:09:03.639Z,1008.7
2022-08-12T06:10:03.633Z,1008.75
2022-08-12T06:11:03.617Z,1008.73
2022-08-12T06:12:03.605Z,1008.73
2022-08-12T06:13:03.599Z,1008.71
2022-08-12T06:14:03.607Z,1008.67
2022-08-12T06:15:03.581Z,1008.74
2022-08-12T06:16:03.564Z,1008.75
2022-08-12T06:17:03.556Z,1008.79
2022-08-12T06:18:03.552Z,1008.75
2022-08-12T06:19:03.536Z,1008.77
2022-08-12T06:20:03.517Z,1008.78
2022-08-12T06:21:03.510Z,1008.75
2022-08-12T06:22:03.501Z,1008.82
2022-08-12T06:23:03.492Z,1008.8
2022-08-12T06:24:03.477Z,1008.8
2022-08-12T06:25:03.467Z,1008.86
2022-08-12T06:26:03.458Z,1008.83
2022-08-12T06:27:03.452Z,1008.76
2022-08-12T06:28:03.441Z,1008.76
2022-08-12T06:29:03.433Z,1008.78
2022-08-12T06:30:03.418Z,1008.82
2022-08-12T06:31:03.407Z,1008.84
2022-08-12T06:32:03.478Z,1008.86
2022-08-12T06:33:03.390Z,1008.83
2022-08-12T06:34:03.370Z,1008.84
2022-08-12T06:35:03.397Z,1008.84
2022-08-12T06:36:03.355Z,1008.88
2022-08-12T06:37:03.345Z,1008.85
2022-08-12T06:38:03.349Z,1008.91
2022-08-12T06:39:03.330Z,1008.9
2022-08-12T06:40:03.316Z,1008.92
2022-08-12T06:41:03.308Z,1008.92
2022-08-12T06:42:03.300Z,1008.95
2022-08-12T06:43:03.280Z,1008.94
2022-08-12T06:44:03.277Z,1008.86
2022-08-12T06:45:03.272Z,1008.92
2022-08-12T06:46:03.301Z,1009
2022-08-12T06:47:03.234Z,1008.97
2022-08-12T06:48:03.234Z,1008.98
2022-08-12T06:49:03.239Z,1009.03
2022-08-12T06:50:03.227Z,1009.02
2022-08-12T06:51:03.195Z,1009.02
2022-08-12T06:52:03.212Z,1009.03
2022-08-12T06:53:03.198Z,1009.04
2022-08-12T06:54:03.175Z,1009.01
2022-08-12T06:55:03.155Z,1008.99
2022-08-12T06:56:03.154Z,1009.04
2022-08-12T06:57:03.139Z,1009
2022-08-12T06:58:03.171Z,1009.04
2022-08-12T06:59:03.111Z,1009.05
2022-08-12T07:00:03.098Z,1009
2022-08-12T07:01:03.105Z,1009.02
2022-08-12T07:02:03.082Z,1009.04
2022-08-12T07:03:03.074Z,1009.08
2022-08-12T07:04:03.065Z,1009.01
2022-08-12T07:05:03.064Z,1009.05
2022-08-12T07:06:03.042Z,1008.99
2022-08-12T07:07:03.028Z,1008.97
2022-08-12T07:08:03.031Z,1009.03
2022-08-12T07:09:03.013Z,1008.99
2022-08-12T07:10:03.002Z,1009.01
2022-08-12T07:11:02.994Z,1009.03
2022-08-12T07:12:02.986Z,1008.98
2022-08-12T07:13:02.963Z,1009.02
2022-08-12T07:14:02.959Z,1009.01
2022-08-12T07:15:02.941Z,1009
2022-08-12T07:16:02.936Z,1009.04
2022-08-12T07:17:02.936Z,1009.05
2022-08-12T07:18:02.918Z,1008.97
2022-08-12T07:19:02.901Z,1009
2022-08-12T07:20:02.902Z,1009
2022-08-12T07:21:02.877Z,1008.97
2022-08-12T07:22:02.874Z,1008.99
2022-08-12T07:23:02.875Z,1008.97
2022-08-12T07:24:02.847Z,1008.97
2022-08-12T07:25:02.836Z,1009.02
2022-08-12T07:26:02.833Z,1008.98
2022-08-12T07:27:02.817Z,1009.02
2022-08-12T07:28:02.812Z,1009.04
2022-08-12T07:29:02.796Z,1009.05
2022-08-12T07:30:02.780Z,1009.07
2022-08-12T07:31:02.788Z,1009.05
2022-08-12T07:32:02.786Z,1009.03
2022-08-12T07:33:02.749Z,1009.01
2022-08-12T07:34:02.744Z,1009.04
2022-08-12T07:35:02.737Z,1009.09
2022-08-12T07:36:02.736Z,1009.06
2022-08-12T07:37:02.714Z,1009.06
2022-08-12T07:38:02.707Z,1009.14
2022-08-12T07:39:02.715Z,1009.13
2022-08-12T07:40:02.680Z,1009.08
2022-08-12T07:41:02.665Z,1009.12
2022-08-12T07:42:02.660Z,1009.08
2022-08-12T07:43:02.648Z,1009.09
2022-08-12T07:44:02.632Z,1009.06
2022-08-12T07:45:02.635Z,1009.09
2022-08-12T07:46:02.623Z,1009.12
2022-08-12T07:47:02.622Z,1009.09
2022-08-12T07:48:02.593Z,1009.03
2022-08-12T07:49:02.586Z,1009.07
2022-08-12T07:50:02.577Z,1009.06
2022-08-12T07:51:02.566Z,1009.07
2022-08-12T07:52:02.553Z,1009.08
2022-08-12T07:53:02.550Z,1009.07
2022-08-12T07:54:02.531Z,1009.09
2022-08-12T07:55:02.527Z,1009.08
2022-08-12T07:56:02.587Z,1009.12
2022-08-12T07:57:02.500Z,1009.07
2022-08-12T07:58:02.488Z,1009.06
2022-08-12T07:59:02.484Z,1009.1
2022-08-12T08:00:02.476Z,1009.13
2022-08-12T08:01:02.468Z,1009.1
2022-08-12T08:02:02.465Z,1009.14
2022-08-12T08:03:02.441Z,1009.08
2022-08-12T08:04:02.437Z,1009.16
2022-08-12T08:05:02.415Z,1009.14
2022-08-12T08:06:02.416Z,1009.13
2022-08-12T08:07:02.398Z,1009.08
2022-08-12T08:08:02.392Z,1009.06
2022-08-12T08:09:02.380Z,1009.06
2022-08-12T08:10:02.369Z,1009.07
2022-08-12T08:11:02.368Z,1009.1
2022-08-12T08:12:02.352Z,1009.03
2022-08-12T08:13:02.345Z,1009.12
2022-08-12T08:14:02.327Z,1009.06
2022-08-12T08:15:02.318Z,1009.07
2022-08-12T08:16:02.304Z,1009.1
2022-08-12T08:17:02.295Z,1009.07
2022-08-12T08:18:02.284Z,1009.09
2022-08-12T08:19:02.272Z,1009.13
2022-08-12T08:20:02.339Z,1009.12
2022-08-12T08:21:02.277Z,1009.11
2022-08-12T08:22:02.249Z,1009.07
2022-08-12T08:23:02.232Z,1009.1
2022-08-12T08:24:02.219Z,1009.1
2022-08-12T08:25:02.209Z,1009.11
2022-08-12T08:26:02.212Z,1009.08
2022-08-12T08:27:02.202Z,1009.12
2022-08-12T08:28:02.178Z,1009.1
2022-08-12T08:29:02.166Z,1009.11
2022-08-12T08:30:02.160Z,1009.17
2022-08-12T08:31:02.175Z,1009.16
2022-08-12T08:32:02.157Z,1009.15
2022-08-12T08:33:02.130Z,1009.04
2022-08-12T08:34:02.136Z,1009.12
2022-08-12T08:35:02.107Z,1009.08
2022-08-12T08:36:02.095Z,1009.06
2022-08-12T08:37:03.008Z,1009.01
2022-08-12T08:38:02.082Z,1009.05
2022-08-12T08:39:02.069Z,1009.08
2022-08-12T08:40:02.067Z,1009.05
2022-08-12T08:41:02.054Z,1009.06
2022-08-12T08:42:02.141Z,1009.07
2022-08-12T08:43:02.033Z,1009.06
2022-08-12T08:44:02.021Z,1009.06
2022-08-12T08:45:02.013Z,1009.07
2022-08-12T08:46:02.006Z,1009.07
2022-08-12T08:47:01.992Z,1009
2022-08-12T08:48:01.999Z,1008.99
2022-08-12T08:49:01.973Z,1009.04
2022-08-12T08:50:01.968Z,1009.03
2022-08-12T08:51:01.960Z,1009.04
2022-08-12T08:52:01.935Z,1009.08
2022-08-12T08:53:01.925Z,1009.04
2022-08-12T08:54:01.924Z,1009.01
2022-08-12T08:55:01.908Z,1009.08
2022-08-12T08:56:01.957Z,1008.97
2022-08-12T08:57:01.897Z,1009
2022-08-12T08:58:01.889Z,1008.99
2022-08-12T08:59:01.937Z,1009
2022-08-12T09:00:01.982Z,1008.99
2022-08-12T09:01:01.840Z,1009.02
2022-08-12T09:02:01.828Z,1008.97
2022-08-12T09:03:01.819Z,1008.98
2022-08-12T09:04:01.903Z,1008.97
2022-08-12T09:05:01.801Z,1008.95
2022-08-12T09:06:01.787Z,1008.96
2022-08-12T09:07:01.779Z,1008.94
2022-08-12T09:08:01.815Z,1008.94
2022-08-12T09:09:01.764Z,1008.89
2022-08-12T09:10:01.770Z,1008.89
2022-08-12T09:11:01.740Z,1008.88
2022-08-12T09:12:01.736Z,1008.87
2022-08-12T09:13:01.738Z,1008.89
2022-08-12T09:14:01.745Z,1008.86
2022-08-12T09:15:01.702Z,1008.84
2022-08-12T09:16:01.688Z,1008.91
2022-08-12T09:17:01.681Z,1008.87
2022-08-12T09:18:01.692Z,1008.76
2022-08-12T09:19:01.661Z,1008.77
2022-08-12T09:20:01.650Z,1008.79
2022-08-12T09:21:01.638Z,1008.79
2022-08-12T09:22:01.629Z,1008.74
2022-08-12T09:23:01.622Z,1008.78
2022-08-12T09:24:01.616Z,1008.74
2022-08-12T09:25:01.616Z,1008.77
2022-08-12T09:26:01.609Z,1008.75
2022-08-12T09:27:01.582Z,1008.76
2022-08-12T09:28:01.578Z,1008.72
2022-08-12T09:29:01.554Z,1008.69
2022-08-12T09:30:01.563Z,1008.72
2022-08-12T09:31:01.541Z,1008.69
2022-08-12T09:32:01.554Z,1008.66
2022-08-12T09:33:01.526Z,1008.59
2022-08-12T09:34:01.506Z,1008.61
2022-08-12T09:35:01.526Z,1008.61
2022-08-12T09:36:01.491Z,1008.63
2022-08-12T09:37:01.582Z,1008.67
2022-08-12T09:38:01.563Z,1008.63
2022-08-12T09:39:01.467Z,1008.68
2022-08-12T09:40:01.484Z,1008.56
2022-08-12T09:41:01.436Z,1008.58
2022-08-12T09:42:01.427Z,1008.59
2022-08-12T09:43:01.498Z,1008.63
2022-08-12T09:44:01.405Z,1008.64
2022-08-12T09:45:01.399Z,1008.63
2022-08-12T09:46:01.415Z,1008.6
2022-08-12T09:47:01.381Z,1008.6
2022-08-12T09:48:01.375Z,1008.61
2022-08-12T09:49:01.368Z,1008.56
2022-08-12T09:50:01.346Z,1008.58
2022-08-12T09:51:01.341Z,1008.58
2022-08-12T09:52:02.017Z,1008.56
2022-08-12T09:53:01.323Z,1008.54
2022-08-12T09:54:01.370Z,1008.54
2022-08-12T09:55:01.303Z,1008.5
2022-08-12T09:56:01.284Z,1008.48
2022-08-12T09:57:01.278Z,1008.51
2022-08-12T09:58:01.271Z,1008.56
2022-08-12T09:59:01.259Z,1008.57
2022-08-12T10:00:01.247Z,1008.55
2022-08-12T10:01:01.241Z,1008.46
2022-08-12T10:02:01.229Z,1008.5
2022-08-12T10:03:01.217Z,1008.45
2022-08-12T10:04:01.208Z,1008.44
2022-08-12T10:05:01.198Z,1008.47
2022-08-12T10:06:01.184Z,1008.38
2022-08-12T10:07:01.177Z,1008.44
2022-08-12T10:08:01.170Z,1008.44
2022-08-12T10:09:01.157Z,1008.4
2022-08-12T10:10:01.161Z,1008.4
2022-08-12T10:11:01.133Z,1008.45
2022-08-12T10:12:01.160Z,1008.31
2022-08-12T10:13:01.123Z,1008.34
2022-08-12T10:14:01.112Z,1008.32
2022-08-12T10:15:01.101Z,1008.29
2022-08-12T10:16:01.123Z,1008.32
2022-08-12T10:17:01.085Z,1008.28
2022-08-12T10:18:01.070Z,1008.24
2022-08-12T10:19:01.068Z,1008.19
2022-08-12T10:20:01.052Z,1008.21
2022-08-12T10:21:01.043Z,1008.24
2022-08-12T10:22:01.030Z,1008.24
2022-08-12T10:23:01.022Z,1008.26
2022-08-12T10:24:01.013Z,1008.29
2022-08-12T10:25:01.006Z,1008.26
2022-08-12T10:26:00.996Z,1008.22
2022-08-12T10:27:00.981Z,1008.22
2022-08-12T10:28:00.970Z,1008.2
2022-08-12T10:29:00.969Z,1008.24
2022-08-12T10:30:00.952Z,1008.26
2022-08-12T10:31:00.946Z,1008.34
2022-08-12T10:32:00.944Z,1008.17
2022-08-12T10:33:00.928Z,1008.16
2022-08-12T10:34:00.943Z,1008.26
2022-08-12T10:35:00.904Z,1008.26
2022-08-12T10:36:00.903Z,1008.24
2022-08-12T10:37:00.904Z,1008.16
2022-08-12T10:38:00.906Z,1008.24
2022-08-12T10:39:00.889Z,1008.13
2022-08-12T10:40:00.858Z,1008.08
2022-08-12T10:41:00.863Z,1008.14
2022-08-12T10:42:00.834Z,1008.12
2022-08-12T10:43:00.831Z,1008.15
2022-08-12T10:44:00.835Z,1008.16
2022-08-12T10:45:00.815Z,1008.09
2022-08-12T10:46:00.809Z,1008.08
2022-08-12T10:47:00.819Z,1008.04
2022-08-12T10:48:00.781Z,1008.04
2022-08-12T10:49:00.801Z,1008.01
2022-08-12T10:50:00.774Z,1007.98
2022-08-12T10:51:00.753Z,1007.98
2022-08-12T10:52:00.743Z,1008.02
2022-08-12T10:53:00.753Z,1007.9
2022-08-12T10:54:00.721Z,1007.97
2022-08-12T10:55:00.714Z,1008.02
2022-08-12T10:56:00.744Z,1008.01
2022-08-12T10:57:01.688Z,1008
2022-08-12T10:58:00.687Z,1008.01
2022-08-12T10:59:00.674Z,1007.95
2022-08-12T11:00:00.667Z,1008.04
2022-08-12T11:01:00.651Z,1008.01
2022-08-12T11:02:00.660Z,1008.01
2022-08-12T11:03:00.644Z,1008.03
2022-08-12T11:04:00.655Z,1008.03
2022-08-12T11:05:00.616Z,1007.92
2022-08-12T11:06:00.612Z,1008
2022-08-12T11:07:00.594Z,1007.96
2022-08-12T11:08:00.615Z,1008
2022-08-12T11:09:00.591Z,1008.01
2022-08-12T11:10:00.588Z,1007.99
2022-08-12T11:11:00.554Z,1007.98
2022-08-12T11:12:00.543Z,1008.01
2022-08-12T11:13:00.579Z,1008.02
2022-08-12T11:14:00.524Z,1007.96
2022-08-12T11:15:00.557Z,1007.95
2022-08-12T11:16:00.522Z,1007.92
2022-08-12T11:17:00.504Z,1007.95
2022-08-12T11:18:00.488Z,1007.92
2022-08-12T11:19:00.479Z,1007.9
2022-08-12T11:20:00.473Z,1007.97
2022-08-12T11:21:00.465Z,1007.9
2022-08-12T11:22:00.456Z,1007.92
2022-08-12T11:23:00.642Z,1007.89
2022-08-12T11:24:00.503Z,1007.89
2022-08-12T11:25:00.454Z,1007.9
2022-08-12T11:26:00.450Z,1007.98
2022-08-12T11:27:00.417Z,1007.92
2022-08-12T11:28:00.407Z,1007.92
2022-08-12T11:29:00.433Z,1007.91
2022-08-12T11:30:00.381Z,1007.87
2022-08-12T11:31:00.377Z,1007.87
2022-08-12T11:32:00.358Z,1007.91
2022-08-12T11:33:00.356Z,1007.85
2022-08-12T11:34:00.339Z,1007.87
2022-08-12T11:35:00.333Z,1007.84
2022-08-12T11:36:00.337Z,1007.81
2022-08-12T11:37:00.313Z,1007.84
2022-08-12T11:38:00.304Z,1007.87
2022-08-12T11:39:00.298Z,1007.79
2022-08-12T11:40:00.279Z,1007.78
2022-08-12T11:41:00.279Z,1007.79
2022-08-12T11:42:00.264Z,1007.76
2022-08-12T11:43:00.289Z,1007.76
2022-08-12T11:44:00.248Z,1007.77
2022-08-12T11:45:00.241Z,1007.78
2022-08-12T11:46:00.234Z,1007.79
2022-08-12T11:47:00.245Z,1007.79
2022-08-12T11:48:00.220Z,1007.75
2022-08-12T11:49:00.202Z,1007.79
2022-08-12T11:50:00.192Z,1007.7
2022-08-12T11:51:00.180Z,1007.64
2022-08-12T11:52:00.178Z,1007.67
2022-08-12T11:53:00.180Z,1007.69
2022-08-12T11:54:00.199Z,1007.56
2022-08-12T11:55:00.149Z,1007.7
2022-08-12T11:56:00.156Z,1007.67
2022-08-12T11:57:00.129Z,1007.67
2022-08-12T11:58:00.140Z,1007.63
2022-08-12T11:59:00.115Z,1007.62
2022-08-12T12:02:00.095Z,1007.57
2022-08-12T12:03:00.134Z,1007.53
2022-08-12T12:04:00.066Z,1007.63
2022-08-12T12:05:00.061Z,1007.52
2022-08-12T12:06:00.048Z,1007.62
2022-08-12T12:07:00.045Z,1007.55
2022-08-12T12:08:00.109Z,1007.59
2022-08-12T12:09:00.023Z,1007.59
2022-08-12T12:10:00.007Z,1007.6